Weather History for Fort Drum, NY

Change the Weather History Date:

Thursday, March 7, 2013

  Actual Average Record
Temperature  
Mean Temperature 29 °F -  
Max Temperature 32 °F 31 °F 62 °F (2012)
Min Temperature 25 °F 14 °F -12 °F (2007)
Degree Days  
Heating Degree Days 36    
Moisture  
Dew Point 25 °F    
Average Humidity 86    
Maximum Humidity 100    
Minimum Humidity 68    
Precipitation  
Precipitation 0.00 in - - ()
Sea Level Pressure  
Sea Level Pressure 30.24 in    
Wind  
Wind Speed 10 mph (NNE)    
Max Wind Speed 17 mph    
Max Gust Speed 24 mph    
Visibility 9 miles    
Events Snow    
Averages and records for this station are not official NWS values.
T = Trace of Precipitation, MM = Missing Value Source: NWS Daily Summary

Daily Weather History Graph

Daily Weather History Graph

Search for Another Location

Airport:

Trip Planner

Search our weather history database for the weather conditions in past years. The results will help you decide how hot, cold, wet, or windy it might be!

Date:

Astronomy

Mar. 07, 2013 Rise Set
Actual Time 6:29 AM EST 5:59 PM EST
Civil Twilight 6:00 AM EST 6:28 PM EST
Nautical Twilight 5:26 AM EST 7:01 PM EST
Astronomical Twilight 4:53 AM EST 7:35 PM EST
Moon 3:34 AM EST (3/7) 1:37 PM EST (3/7)
Length of Visible Light 12h 27m
Length of Day
11h 30m
Waning Crescent, 20% of the Moon is Illuminated
Mar 7
Waning Crescent
Mar 11
New
Mar 19
First Quarter
Mar 27
Full
Apr 3
Last Quarter

Hourly Weather History & Observations

Time (EST) Temp. Windchill Dew Point Humidity Pressure Visibility Wind Dir Wind Speed Gust Speed Precip Events Conditions
12:55 AM 32.5 °F 25.5 °F 28.4 °F 85% 30.17 in 10.0 mi East 8.1 mph - N/A   Overcast
1:55 AM 32.2 °F 25.8 °F 28.2 °F 85% 30.17 in 10.0 mi ENE 6.9 mph - N/A   Overcast
2:55 AM 31.3 °F 26.6 °F 28.4 °F 89% 30.17 in 10.0 mi NE 4.6 mph - N/A   Overcast
3:55 AM 30.7 °F 26.0 °F 28.8 °F 92% 30.18 in 10.0 mi NNE 4.6 mph - N/A   Overcast
4:55 AM 30.6 °F 23.8 °F 28.8 °F 93% 30.18 in 10.0 mi NNE 6.9 mph - N/A   Overcast
5:55 AM 30.4 °F 22.9 °F 28.6 °F 93% 30.17 in 10.0 mi NE 8.1 mph - N/A   Overcast
6:55 AM 30.0 °F 21.7 °F 28.6 °F 94% 30.17 in 10.0 mi NE 9.2 mph - N/A   Overcast
7:55 AM 30.2 °F 20.8 °F 28.2 °F 92% 30.19 in 10.0 mi NE 11.5 mph - N/A   Overcast
8:55 AM 30.6 °F 21.2 °F 27.5 °F 88% 30.21 in 10.0 mi NNE 11.5 mph - N/A   Overcast
9:55 AM 31.3 °F 21.6 °F 26.6 °F 83% 30.21 in 10.0 mi NNE 12.7 mph - N/A   Overcast
10:55 AM 32.7 °F 23.4 °F 25.0 °F 73% 30.21 in 10.0 mi NNE 12.7 mph - N/A   Overcast
11:55 AM 32.9 °F 23.2 °F 23.5 °F 68% 30.21 in 10.0 mi NNE 13.8 mph - N/A   Overcast
12:55 PM 32.0 °F 22.5 °F 23.5 °F 71% 30.22 in 10.0 mi NE 12.7 mph - N/A   Overcast
1:42 PM 32.0 °F 22.5 °F 23.0 °F 69% 30.21 in 10.0 mi NE 12.7 mph - N/A   Overcast
1:50 PM 32.0 °F 22.1 °F 23.0 °F 69% 30.21 in 10.0 mi NNE 13.8 mph - N/A   Overcast
1:55 PM 31.6 °F 20.7 °F 23.4 °F 71% 30.21 in 10.0 mi NE 16.1 mph - N/A   Overcast
2:41 PM 32.0 °F 22.1 °F 23.0 °F 69% 30.21 in 10.0 mi NE 13.8 mph - N/A   Overcast
2:55 PM 30.9 °F 19.8 °F 23.2 °F 73% 30.22 in 10.0 mi NNE 16.1 mph - N/A   Overcast
3:14 PM 30.2 °F 19.8 °F 23.0 °F 75% 30.22 in 10.0 mi NNE 13.8 mph - N/A   Overcast
3:55 PM 30.7 °F 20.9 °F 23.2 °F 74% 30.22 in 10.0 mi NE 12.7 mph - N/A   Overcast
4:35 PM 30.2 °F 18.5 °F 23.0 °F 75% 30.23 in 10.0 mi NE 17.3 mph - N/A   Overcast
4:49 PM 30.2 °F 18.5 °F 23.0 °F 75% 30.23 in 10.0 mi NNE 17.3 mph - N/A   Overcast
4:54 PM 30.2 °F 18.5 °F 23.0 °F 75% 30.23 in 10.0 mi NNE 17.3 mph - N/A   Overcast
4:55 PM 30.2 °F 18.9 °F 22.6 °F 73% 30.23 in 10.0 mi NNE 16.1 mph - N/A   Overcast
5:21 PM 30.2 °F 19.8 °F 23.0 °F 75% 30.25 in 10.0 mi NNE 13.8 mph - N/A   Overcast
5:26 PM 30.2 °F 19.8 °F 23.0 °F 75% 30.25 in 10.0 mi NNE 13.8 mph - N/A   Overcast
5:27 PM 30.2 °F 19.3 °F 23.0 °F 75% 30.25 in 10.0 mi NNE 15.0 mph - N/A   Overcast
5:31 PM 30.2 °F 20.2 °F 23.0 °F 75% 30.25 in 10.0 mi NNE 12.7 mph - N/A   Overcast
5:41 PM 30.2 °F 20.2 °F 23.0 °F 75% 30.25 in 10.0 mi NNE 12.7 mph - N/A   Overcast
5:49 PM 28.4 °F 17.5 °F 23.0 °F 80% 30.25 in 10.0 mi NNE 13.8 mph 24.2 mph N/A   Overcast
5:55 PM 29.1 °F 18.4 °F 22.8 °F 77% 30.25 in 10.0 mi NE 13.8 mph - 0.00 in   Overcast
6:37 PM 28.4 °F 19.1 °F 23.0 °F 80% 30.27 in 10.0 mi NE 10.4 mph - N/A   Overcast
6:44 PM 28.4 °F 18.5 °F 24.8 °F 86% 30.27 in 10.0 mi NNE 11.5 mph - N/A   Overcast
6:55 PM 28.0 °F 17.5 °F 23.7 °F 84% 30.27 in 10.0 mi NE 12.7 mph - 0.00 in   Overcast
6:56 PM 28.4 °F 18.5 °F 23.0 °F 80% 30.27 in 10.0 mi NE 11.5 mph - N/A   Overcast
6:58 PM 28.4 °F 17.5 °F 23.0 °F 80% 30.27 in 10.0 mi NE 13.8 mph - N/A   Overcast
7:05 PM 28.4 °F 18.5 °F 23.0 °F 80% 30.27 in 10.0 mi NNE 11.5 mph - N/A   Overcast
7:09 PM 28.4 °F 20.4 °F 23.0 °F 80% 30.27 in 10.0 mi NNE 8.1 mph - N/A   Overcast
7:10 PM 28.4 °F 19.7 °F 23.0 °F 80% 30.27 in 10.0 mi NNE 9.2 mph - N/A   Overcast
7:11 PM 28.4 °F 18.5 °F 23.0 °F 80% 30.27 in 10.0 mi NNE 11.5 mph - N/A   Overcast
7:13 PM 28.4 °F 18.5 °F 23.0 °F 80% 30.27 in 10.0 mi North 11.5 mph - N/A   Overcast
7:14 PM 28.4 °F 18.5 °F 23.0 °F 80% 30.27 in 10.0 mi NNE 11.5 mph - N/A   Overcast
7:17 PM 28.4 °F 18.0 °F 23.0 °F 80% 30.27 in 10.0 mi NNE 12.7 mph - N/A   Overcast
7:24 PM 28.4 °F 19.1 °F 24.8 °F 86% 30.27 in 6.0 mi NNE 10.4 mph - N/A Snow Light Snow
7:28 PM 28.4 °F 20.4 °F 24.8 °F 86% 30.27 in 5.0 mi NNE 8.1 mph - N/A Snow Light Snow
7:29 PM 28.4 °F 19.7 °F 24.8 °F 86% 30.27 in 5.0 mi NNE 9.2 mph - N/A Snow Light Snow
7:30 PM 28.4 °F 18.5 °F 24.8 °F 86% 30.27 in 5.0 mi NNE 11.5 mph - N/A Snow Light Snow
7:38 PM 28.4 °F 19.7 °F 24.8 °F 86% 30.27 in 5.0 mi NNE 9.2 mph - N/A Snow Light Snow
7:40 PM 28.4 °F 19.1 °F 24.8 °F 86% 30.27 in 5.0 mi NNE 10.4 mph - N/A Snow Light Snow
7:55 PM 27.3 °F 19.1 °F 25.0 °F 91% 30.27 in 5.0 mi NNE 8.1 mph - 0.00 in Snow Light Snow
8:26 PM 26.6 °F 16.8 °F 24.8 °F 93% 30.27 in 4.0 mi NNE 10.4 mph - N/A Snow Light Snow
8:28 PM 26.6 °F 16.8 °F 24.8 °F 93% 30.27 in 4.0 mi NNE 10.4 mph - N/A Snow Light Snow
8:55 PM 26.6 °F 17.5 °F 25.9 °F 97% 30.27 in 5.0 mi NNE 9.2 mph - 0.00 in Snow Light Snow
9:14 PM 26.6 °F 19.1 °F 26.6 °F 100% 30.27 in 7.0 mi North 6.9 mph - N/A Snow Light Snow
9:24 PM 26.6 °F 18.2 °F 26.6 °F 100% 30.27 in 6.0 mi North 8.1 mph - N/A Snow Light Snow
9:45 PM 26.6 °F 18.2 °F 26.6 °F 100% 30.26 in 8.0 mi North 8.1 mph - N/A Snow Light Snow
9:55 PM 26.4 °F 18.9 °F 26.2 °F 99% 30.26 in 10.0 mi North 6.9 mph - 0.00 in Snow Light Snow
9:57 PM 26.6 °F 20.0 °F 26.6 °F 100% 30.26 in 10.0 mi North 5.8 mph - N/A Snow Light Snow
10:30 PM 26.6 °F 18.2 °F 26.6 °F 100% 30.25 in 9.0 mi North 8.1 mph - N/A Snow Light Snow
10:37 PM 26.6 °F 18.2 °F 26.6 °F 100% 30.25 in 7.0 mi North 8.1 mph - N/A Snow Light Snow
10:40 PM 26.6 °F 18.2 °F 26.6 °F 100% 30.25 in 7.0 mi North 8.1 mph - N/A Snow Light Snow
10:42 PM 26.6 °F 17.5 °F 26.6 °F 100% 30.25 in 7.0 mi North 9.2 mph - N/A Snow Light Snow
10:45 PM 26.6 °F 18.2 °F 26.6 °F 100% 30.25 in 7.0 mi North 8.1 mph - N/A Snow Light Snow
10:55 PM 26.2 °F 17.1 °F 26.1 °F 99% 30.25 in 6.0 mi North 9.2 mph - 0.00 in Snow Light Snow
10:56 PM 26.6 °F 18.2 °F 26.6 °F 100% 30.25 in 6.0 mi North 8.1 mph - N/A Snow Light Snow
10:58 PM 26.6 °F 17.5 °F 26.6 °F 100% 30.25 in 5.0 mi North 9.2 mph - N/A Snow Light Snow
11:06 PM 26.6 °F 17.5 °F 26.6 °F 100% 30.25 in 6.0 mi North 9.2 mph - N/A Snow Light Snow
11:14 PM 26.6 °F 17.5 °F 26.6 °F 100% 30.25 in 8.0 mi North 9.2 mph - N/A Snow Light Snow
11:16 PM 26.6 °F 17.5 °F 26.6 °F 100% 30.25 in 8.0 mi North 9.2 mph - N/A Snow Light Snow
11:37 PM 26.6 °F 17.5 °F 26.6 °F 100% 30.24 in 7.0 mi North 9.2 mph - N/A Snow Light Snow
11:44 PM 26.6 °F 17.5 °F 24.8 °F 93% 30.24 in 9.0 mi North 9.2 mph - N/A Snow Light Snow
11:55 PM 25.9 °F 17.4 °F 25.7 °F 99% 30.24 in 10.0 mi North 8.1 mph - 0.00 in Snow Light Snow